Time;durP1;ratioP1;P1;durP2;ratioP2;P2;SDS_P1;SDS_P2;PMS_P1;PMS_P2;Temp;Humidity;BMP_temperature;BMP_pressure;BME280_temperature;BME280_humidity;BME280_pressure;Samples;Min_cycle;Max_cycle;Signal;HPM_P1;HPM_P2
2021/09/24 00:01:13;;;;;;;5.45;2.95;;;;;;;;;;5027751;28;20025;-81
2021/09/24 00:03:39;;;;;;;5.38;2.53;;;;;;;;;;5029529;28;20036;-81
2021/09/24 00:06:06;;;;;;;4.50;2.67;;;;;;;;;;5028903;28;20029;-74
2021/09/24 00:08:32;;;;;;;5.95;2.40;;;;;;;;;;5029064;28;20034;-81
2021/09/24 00:10:59;;;;;;;3.92;2.63;;;;;;;;;;5028902;28;20025;-77
2021/09/24 00:13:25;;;;;;;4.50;2.80;;;;;;;;;;5027981;28;20034;-78
2021/09/24 00:15:52;;;;;;;8.52;2.60;;;;;;;;;;5028559;28;20089;-76
2021/09/24 00:18:19;;;;;;;7.30;3.25;;;;;;;;;;5029000;28;20025;-74
2021/09/24 00:20:45;;;;;;;3.10;2.47;;;;;;;;;;5029191;28;20026;-76
2021/09/24 00:23:11;;;;;;;4.65;2.67;;;;;;;;;;5028647;28;20661;-74
2021/09/24 00:25:38;;;;;;;4.93;2.88;;;;;;;;;;5027358;28;20029;-74
2021/09/24 00:28:06;;;;;;;4.55;2.55;;;;;;;;;;5028688;28;20033;-74
2021/09/24 00:30:32;;;;;;;4.45;2.92;;;;;;;;;;5028807;28;20025;-74
2021/09/24 00:32:58;;;;;;;5.10;2.90;;;;;;;;;;5028392;28;20067;-80
2021/09/24 00:35:25;;;;;;;3.33;2.58;;;;;;;;;;5028370;28;20026;-81
2021/09/24 00:37:51;;;;;;;4.60;2.67;;;;;;;;;;5028424;28;20030;-76
2021/09/24 00:40:17;;;;;;;5.32;2.83;;;;;;;;;;5027143;28;20025;-75
2021/09/24 00:42:43;;;;;;;5.72;2.70;;;;;;;;;;5028675;28;20033;-80
2021/09/24 00:45:10;;;;;;;3.08;2.38;;;;;;;;;;5028207;28;20112;-82
2021/09/24 00:47:36;;;;;;;4.68;2.88;;;;;;;;;;5028273;28;20025;-74
2021/09/24 00:50:03;;;;;;;3.00;2.58;;;;;;;;;;5027989;28;20498;-81
2021/09/24 00:52:29;;;;;;;5.53;3.00;;;;;;;;;;5026701;28;20026;-77
2021/09/24 00:54:56;;;;;;;5.82;2.83;;;;;;;;;;5027908;28;20032;-74
2021/09/24 00:57:22;;;;;;;3.00;2.58;;;;;;;;;;5028231;28;20068;-75
2021/09/24 00:59:49;;;;;;;4.25;2.42;;;;;;;;;;5028097;28;20562;-81
2021/09/24 01:02:15;;;;;;;4.97;2.67;;;;;;;;;;5027823;28;20026;-77
2021/09/24 01:04:41;;;;;;;3.97;2.38;;;;;;;;;;5026482;28;20029;-74
2021/09/24 01:07:08;;;;;;;3.17;2.40;;;;;;;;;;5027776;28;20105;-74
2021/09/24 01:09:34;;;;;;;4.60;2.53;;;;;;;;;;5027806;28;20041;-74
2021/09/24 01:12:01;;;;;;;4.72;3.08;;;;;;;;;;5027878;28;20024;-80
2021/09/24 01:14:28;;;;;;;4.28;2.70;;;;;;;;;;5028049;28;20049;-75
2021/09/24 01:16:55;;;;;;;4.78;3.10;;;;;;;;;;5026304;28;20048;-74
2021/09/24 01:19:21;;;;;;;5.05;2.67;;;;;;;;;;5027136;28;20026;-82
2021/09/24 01:21:47;;;;;;;4.97;2.88;;;;;;;;;;5009739;28;20079;-82
2021/09/24 01:24:14;;;;;;;2.80;2.30;;;;;;;;;;5027706;28;20091;-77
2021/09/24 01:26:51;;;;;;;6.00;3.17;;;;;;;;;;5026068;28;20036;-74
2021/09/24 01:29:17;;;;;;;3.20;2.42;;;;;;;;;;5027564;28;20474;-81
2021/09/24 01:31:44;;;;;;;3.53;2.47;;;;;;;;;;5027659;28;20033;-78
2021/09/24 01:34:10;;;;;;;4.68;2.72;;;;;;;;;;5008743;28;20033;-81
2021/09/24 01:36:36;;;;;;;3.58;2.72;;;;;;;;;;5027589;28;20037;-83
2021/09/24 01:39:07;;;;;;;3.60;2.70;;;;;;;;;;5012924;28;20026;-83
2021/09/24 01:41:33;;;;;;;5.28;2.60;;;;;;;;;;5003742;28;20044;-83
2021/09/24 01:43:59;;;;;;;5.65;2.83;;;;;;;;;;5003036;28;20501;-83
2021/09/24 01:46:25;;;;;;;4.00;3.10;;;;;;;;;;5003045;28;20037;-82
2021/09/24 01:48:51;;;;;;;2.65;2.40;;;;;;;;;;5002001;28;20037;-83
2021/09/24 01:51:18;;;;;;;4.93;3.20;;;;;;;;;;5002599;28;20032;-83
2021/09/24 01:53:44;;;;;;;4.38;2.63;;;;;;;;;;5003001;28;20030;-83
2021/09/24 01:56:10;;;;;;;3.05;2.47;;;;;;;;;;5002663;28;20041;-79
2021/09/24 01:58:36;;;;;;;6.28;2.55;;;;;;;;;;5001602;28;20057;-82
2021/09/24 02:01:02;;;;;;;4.50;2.88;;;;;;;;;;5003361;28;20048;-79
2021/09/24 02:03:28;;;;;;;4.45;2.30;;;;;;;;;;5001962;28;20092;-82
2021/09/24 02:05:54;;;;;;;3.42;2.75;;;;;;;;;;5002056;28;20061;-80
2021/09/24 02:08:21;;;;;;;5.22;2.85;;;;;;;;;;5005355;28;20038;-85
2021/09/24 02:10:47;;;;;;;5.80;2.50;;;;;;;;;;5022373;28;20488;-83
2021/09/24 02:13:13;;;;;;;6.93;2.60;;;;;;;;;;5022196;28;20036;-82
2021/09/24 02:15:39;;;;;;;2.95;2.50;;;;;;;;;;5019831;28;20057;-83
2021/09/24 02:18:06;;;;;;;5.90;2.55;;;;;;;;;;5020952;28;20120;-83
2021/09/24 02:20:32;;;;;;;5.95;2.97;;;;;;;;;;5022329;28;20608;-83
2021/09/24 02:22:58;;;;;;;4.63;2.63;;;;;;;;;;5022158;28;20431;-84
2021/09/24 02:25:24;;;;;;;4.63;2.70;;;;;;;;;;5022525;28;20056;-83
2021/09/24 02:27:50;;;;;;;4.30;3.22;;;;;;;;;;5003351;28;20389;-76
2021/09/24 02:30:16;;;;;;;6.00;2.72;;;;;;;;;;5022499;28;20642;-74
2021/09/24 02:32:42;;;;;;;5.82;2.50;;;;;;;;;;5022541;28;20052;-81
2021/09/24 02:35:09;;;;;;;4.53;2.60;;;;;;;;;;5003817;28;20025;-80
2021/09/24 02:37:36;;;;;;;4.45;2.70;;;;;;;;;;5004018;28;20128;-80
2021/09/24 02:40:02;;;;;;;3.97;2.70;;;;;;;;;;5002849;28;20097;-80
2021/09/24 02:42:28;;;;;;;4.35;2.60;;;;;;;;;;5002848;28;20740;-79
2021/09/24 02:44:54;;;;;;;4.05;3.08;;;;;;;;;;5002406;28;20026;-78
2021/09/24 02:47:20;;;;;;;4.55;2.75;;;;;;;;;;5002589;28;20063;-74
2021/09/24 02:49:48;;;;;;;4.95;3.00;;;;;;;;;;5000969;28;20109;-82
2021/09/24 02:52:14;;;;;;;3.55;2.83;;;;;;;;;;5002352;28;20022;-75
2021/09/24 02:54:40;;;;;;;4.28;2.42;;;;;;;;;;4985192;28;20037;-73
2021/09/24 02:57:07;;;;;;;3.47;2.47;;;;;;;;;;5002695;28;20045;-79
2021/09/24 02:59:33;;;;;;;3.90;2.80;;;;;;;;;;5001571;28;20090;-75
2021/09/24 03:01:59;;;;;;;6.47;2.92;;;;;;;;;;5002940;28;20026;-85
2021/09/24 03:04:26;;;;;;;4.25;2.88;;;;;;;;;;5020001;28;20116;-75
2021/09/24 03:06:52;;;;;;;5.55;2.80;;;;;;;;;;5002056;28;20029;-78
2021/09/24 03:09:18;;;;;;;3.67;2.50;;;;;;;;;;5020221;28;20049;-76
2021/09/24 03:11:45;;;;;;;5.75;3.08;;;;;;;;;;5020138;28;20102;-85
2021/09/24 03:14:11;;;;;;;4.70;2.80;;;;;;;;;;5019338;28;20040;-84
2021/09/24 03:16:37;;;;;;;4.88;2.83;;;;;;;;;;5024036;28;20048;-74
2021/09/24 03:19:04;;;;;;;2.53;2.33;;;;;;;;;;5023665;28;20025;-74
2021/09/24 03:21:30;;;;;;;2.65;2.35;;;;;;;;;;5006032;28;20029;-75
2021/09/24 03:23:57;;;;;;;4.28;2.50;;;;;;;;;;5022493;28;20551;-75
2021/09/24 03:26:23;;;;;;;8.13;2.72;;;;;;;;;;5023317;28;20029;-77
2021/09/24 03:28:49;;;;;;;4.25;2.72;;;;;;;;;;5006064;28;20029;-82
2021/09/24 03:31:16;;;;;;;7.00;3.03;;;;;;;;;;5023881;28;20026;-84
2021/09/24 03:33:43;;;;;;;3.53;2.65;;;;;;;;;;5021750;28;20025;-83
2021/09/24 03:36:09;;;;;;;4.65;2.78;;;;;;;;;;5022804;28;20026;-74
2021/09/24 03:38:35;;;;;;;3.08;2.65;;;;;;;;;;5022716;28;20029;-84
2021/09/24 03:41:01;;;;;;;5.90;3.15;;;;;;;;;;5011473;28;20041;-80
2021/09/24 03:43:27;;;;;;;6.78;2.75;;;;;;;;;;5002735;28;20037;-77
2021/09/24 03:45:54;;;;;;;4.13;2.80;;;;;;;;;;5001993;28;20026;-79
2021/09/24 03:48:22;;;;;;;3.40;2.15;;;;;;;;;;5003279;28;20030;-76
2021/09/24 03:50:49;;;;;;;5.68;3.17;;;;;;;;;;5009131;28;20424;-78
2021/09/24 03:53:15;;;;;;;5.30;2.63;;;;;;;;;;5022015;28;20057;-78
2021/09/24 03:55:41;;;;;;;8.65;3.08;;;;;;;;;;5021678;28;20092;-77
2021/09/24 03:58:08;;;;;;;6.40;2.85;;;;;;;;;;5022403;28;20469;-80
2021/09/24 04:00:34;;;;;;;9.25;3.38;;;;;;;;;;5022490;28;20033;-77
2021/09/24 04:03:00;;;;;;;4.45;2.58;;;;;;;;;;5022373;28;20021;-79
2021/09/24 04:05:26;;;;;;;4.80;3.20;;;;;;;;;;5021062;28;20427;-76
2021/09/24 04:07:52;;;;;;;4.03;2.72;;;;;;;;;;5021900;28;20112;-74
2021/09/24 04:10:18;;;;;;;2.42;2.22;;;;;;;;;;5004501;28;20029;-80
2021/09/24 04:12:45;;;;;;;3.70;2.50;;;;;;;;;;5022008;28;20116;-82
2021/09/24 04:15:11;;;;;;;7.50;3.00;;;;;;;;;;5019935;28;20028;-83
2021/09/24 04:17:37;;;;;;;2.90;2.60;;;;;;;;;;5020580;28;20127;-80
2021/09/24 04:20:04;;;;;;;6.03;3.10;;;;;;;;;;5007665;28;20037;-73
2021/09/24 04:22:30;;;;;;;5.22;3.20;;;;;;;;;;5002072;28;20034;-80
2021/09/24 04:24:56;;;;;;;6.68;3.17;;;;;;;;;;5001493;28;20037;-83
2021/09/24 04:27:23;;;;;;;4.38;3.20;;;;;;;;;;5002697;28;20061;-84
2021/09/24 04:29:49;;;;;;;4.82;3.17;;;;;;;;;;5000781;28;20041;-82
2021/09/24 04:32:15;;;;;;;4.75;3.38;;;;;;;;;;5002155;28;20060;-76
2021/09/24 04:34:41;;;;;;;3.83;3.00;;;;;;;;;;5002624;28;20063;-85
2021/09/24 04:37:07;;;;;;;5.53;3.20;;;;;;;;;;5002200;28;20046;-82
2021/09/24 04:39:33;;;;;;;3.95;2.90;;;;;;;;;;5016599;28;20033;-85
2021/09/24 04:42:00;;;;;;;5.88;3.05;;;;;;;;;;5021777;28;20668;-86
2021/09/24 04:44:26;;;;;;;5.85;3.28;;;;;;;;;;5021690;28;20045;-83
2021/09/24 04:46:52;;;;;;;5.15;2.80;;;;;;;;;;5022041;28;20440;-79
2021/09/24 04:49:18;;;;;;;5.75;3.20;;;;;;;;;;5021661;28;20623;-82
2021/09/24 04:51:45;;;;;;;5.53;2.90;;;;;;;;;;5020187;28;20100;-85
2021/09/24 04:54:11;;;;;;;6.95;3.42;;;;;;;;;;5021416;28;20037;-80
2021/09/24 04:56:37;;;;;;;3.28;2.90;;;;;;;;;;5021664;28;20477;-75
2021/09/24 04:59:03;;;;;;;5.68;3.13;;;;;;;;;;5021766;28;20036;-79
2021/09/24 05:01:30;;;;;;;5.35;3.42;;;;;;;;;;5021465;28;20496;-85
2021/09/24 05:03:56;;;;;;;4.55;2.85;;;;;;;;;;5021194;28;20045;-81
2021/09/24 05:06:22;;;;;;;5.10;2.97;;;;;;;;;;5008982;28;20478;-79
2021/09/24 05:08:48;;;;;;;7.15;3.20;;;;;;;;;;4985719;28;20030;-80
2021/09/24 05:11:14;;;;;;;4.72;2.70;;;;;;;;;;4985742;28;20092;-80
2021/09/24 05:13:40;;;;;;;5.60;2.85;;;;;;;;;;5003133;28;20026;-79
2021/09/24 05:16:07;;;;;;;4.90;2.78;;;;;;;;;;5003230;28;20069;-79
2021/09/24 05:18:33;;;;;;;8.88;3.28;;;;;;;;;;5003316;28;20022;-79
2021/09/24 05:20:59;;;;;;;5.45;3.28;;;;;;;;;;5001850;28;20771;-78
2021/09/24 05:23:25;;;;;;;4.85;3.15;;;;;;;;;;4985475;28;20052;-78
2021/09/24 05:25:52;;;;;;;5.93;2.80;;;;;;;;;;5004356;28;20364;-78
2021/09/24 05:28:18;;;;;;;9.23;3.13;;;;;;;;;;5022404;28;20056;-76
2021/09/24 05:30:44;;;;;;;4.47;3.20;;;;;;;;;;5022769;28;20122;-78
2021/09/24 05:33:10;;;;;;;4.47;3.05;;;;;;;;;;5022762;28;20033;-77
2021/09/24 05:35:36;;;;;;;6.82;3.60;;;;;;;;;;5020684;28;20103;-77
2021/09/24 05:38:02;;;;;;;4.65;3.00;;;;;;;;;;5021597;28;20079;-78
2021/09/24 05:40:29;;;;;;;6.25;3.10;;;;;;;;;;5023105;28;20534;-78
2021/09/24 05:42:55;;;;;;;7.63;3.40;;;;;;;;;;5022643;28;20152;-77
2021/09/24 05:45:21;;;;;;;7.57;3.72;;;;;;;;;;5022771;28;20116;-77
2021/09/24 05:47:48;;;;;;;6.50;3.60;;;;;;;;;;5021060;28;20481;-78
2021/09/24 05:50:15;;;;;;;8.63;3.33;;;;;;;;;;5022241;28;20025;-77
2021/09/24 05:52:43;;;;;;;7.13;4.03;;;;;;;;;;5021995;28;20037;-78
2021/09/24 05:55:09;;;;;;;10.82;4.50;;;;;;;;;;5022489;28;20018;-78
2021/09/24 05:57:36;;;;;;;10.05;4.55;;;;;;;;;;5022503;28;20033;-78
2021/09/24 06:00:02;;;;;;;6.97;3.75;;;;;;;;;;5022521;28;20033;-77
2021/09/24 06:02:28;;;;;;;10.10;4.13;;;;;;;;;;5003414;28;20413;-77
2021/09/24 06:04:55;;;;;;;7.57;3.72;;;;;;;;;;5020522;28;20656;-77
2021/09/24 06:07:23;;;;;;;5.85;3.38;;;;;;;;;;5014766;28;20029;-78
2021/09/24 06:09:49;;;;;;;5.20;3.50;;;;;;;;;;5020818;28;20044;-79
2021/09/24 06:12:15;;;;;;;13.10;4.78;;;;;;;;;;5035299;28;20102;-78
2021/09/24 06:14:42;;;;;;;14.30;4.85;;;;;;;;;;5042276;28;20112;-76
2021/09/24 06:17:09;;;;;;;13.05;5.40;;;;;;;;;;5041570;28;20138;-78
2021/09/24 06:19:36;;;;;;;10.23;5.65;;;;;;;;;;5033113;28;20017;-76
2021/09/24 06:22:02;;;;;;;10.85;5.60;;;;;;;;;;5024938;28;20267;-75
2021/09/24 06:24:28;;;;;;;14.40;7.70;;;;;;;;;;5025467;28;20093;-78
2021/09/24 06:26:55;;;;;;;16.05;8.85;;;;;;;;;;5021841;28;20060;-82
2021/09/24 06:29:21;;;;;;;16.50;9.60;;;;;;;;;;5020941;28;20086;-78
2021/09/24 06:31:47;;;;;;;12.68;6.72;;;;;;;;;;5020746;28;20021;-74
2021/09/24 06:34:13;;;;;;;10.43;6.45;;;;;;;;;;5021058;28;20108;-75
2021/09/24 06:36:39;;;;;;;10.02;6.15;;;;;;;;;;5019286;28;20069;-77
2021/09/24 06:39:06;;;;;;;13.52;6.05;;;;;;;;;;5021626;28;20022;-78
2021/09/24 06:41:32;;;;;;;6.82;5.03;;;;;;;;;;5020379;28;20064;-78
2021/09/24 06:43:58;;;;;;;6.65;4.30;;;;;;;;;;5018873;28;20022;-77
2021/09/24 06:46:24;;;;;;;5.03;3.60;;;;;;;;;;5005530;28;20026;-75
2021/09/24 06:48:51;;;;;;;7.78;3.85;;;;;;;;;;5013373;28;20602;-76
2021/09/24 06:51:17;;;;;;;7.47;3.92;;;;;;;;;;5008106;28;20029;-75
2021/09/24 06:53:43;;;;;;;6.88;3.95;;;;;;;;;;5022910;28;20425;-75
2021/09/24 06:56:10;;;;;;;8.30;3.80;;;;;;;;;;5023532;28;20029;-77
2021/09/24 06:58:37;;;;;;;5.95;3.72;;;;;;;;;;5021589;28;20026;-77
2021/09/24 07:01:03;;;;;;;6.20;4.00;;;;;;;;;;5023931;28;20501;-76
2021/09/24 07:03:29;;;;;;;7.68;4.55;;;;;;;;;;5024326;28;20053;-77
2021/09/24 07:05:55;;;;;;;8.05;4.95;;;;;;;;;;5021433;28;20120;-76
2021/09/24 07:08:21;;;;;;;7.35;5.35;;;;;;;;;;5022667;28;20029;-77
2021/09/24 07:10:48;;;;;;;6.43;4.30;;;;;;;;;;5024559;28;20026;-76
2021/09/24 07:13:14;;;;;;;4.95;4.30;;;;;;;;;;5023296;28;20021;-76
2021/09/24 07:15:43;;;;;;;7.97;4.18;;;;;;;;;;5024603;28;20057;-75
2021/09/24 07:18:10;;;;;;;6.85;4.38;;;;;;;;;;5024518;28;20026;-77
2021/09/24 07:20:37;;;;;;;6.82;4.05;;;;;;;;;;5024874;28;20118;-82
2021/09/24 07:23:03;;;;;;;5.70;4.70;;;;;;;;;;5024699;28;20036;-75
2021/09/24 07:25:30;;;;;;;5.80;4.32;;;;;;;;;;5024540;28;20061;-78
2021/09/24 07:27:56;;;;;;;7.07;5.00;;;;;;;;;;5023103;28;20331;-76
2021/09/24 07:30:22;;;;;;;7.65;5.20;;;;;;;;;;5024618;28;20534;-74
2021/09/24 07:32:48;;;;;;;7.00;5.68;;;;;;;;;;5024488;28;20112;-78
2021/09/24 07:35:14;;;;;;;5.00;4.47;;;;;;;;;;5024737;28;20021;-79
2021/09/24 07:37:40;;;;;;;9.68;5.10;;;;;;;;;;5024263;28;20120;-78
2021/09/24 07:40:07;;;;;;;11.50;6.10;;;;;;;;;;5005700;28;20033;-77
2021/09/24 09:02:03;;;;;;;7.05;4.60;;;;;;;;;;5091551;27;20431;-77
2021/09/24 09:04:41;;;;;;;8.07;4.40;;;;;;;;;;5075699;28;20252;-74
2021/09/24 09:07:08;;;;;;;5.35;4.30;;;;;;;;;;5070445;28;20044;-74
2021/09/24 09:09:36;;;;;;;5.50;4.03;;;;;;;;;;5064820;28;20499;-78
2021/09/24 09:12:28;;;;;;;10.73;4.97;;;;;;;;;;5058290;28;20136;-77
2021/09/24 09:15:09;;;;;;;5.32;3.95;;;;;;;;;;5057926;28;20091;-76
2021/09/24 09:17:37;;;;;;;9.55;4.50;;;;;;;;;;5065372;28;20384;-75
2021/09/24 09:20:09;;;;;;;7.35;4.15;;;;;;;;;;5077968;28;20043;-77
2021/09/24 09:22:36;;;;;;;5.35;4.28;;;;;;;;;;5074564;28;20056;-76
2021/09/24 09:25:02;;;;;;;5.40;4.18;;;;;;;;;;5071432;28;20467;-79
2021/09/24 09:59:32;;;;;;;6.45;3.47;;;;;;;;;;5098798;27;20452;-77
2021/09/24 10:02:12;;;;;;;8.07;3.90;;;;;;;;;;5086556;28;20016;-77
2021/09/24 10:04:43;;;;;;;7.55;3.65;;;;;;;;;;5074292;28;20107;-76
2021/09/24 10:07:20;;;;;;;6.68;3.95;;;;;;;;;;5069132;28;20099;-78
2021/09/24 10:09:47;;;;;;;7.47;3.95;;;;;;;;;;5087752;28;20090;-74
2021/09/24 10:12:19;;;;;;;6.47;4.15;;;;;;;;;;5077157;28;20090;-77
2021/09/24 10:45:32;;;;;;;9.43;4.40;;;;;;;;;;5130599;27;20954;-78
2021/09/24 10:47:59;;;;;;;6.55;4.32;;;;;;;;;;5119037;27;20479;-77
2021/09/24 11:05:57;;;;;;;15.38;4.90;;;;;;;;;;5109172;27;20393;-77
2021/09/24 11:30:48;;;;;;;5.78;4.10;;;;;;;;;;5109421;27;20807;-77
2021/09/24 11:33:34;;;;;;;5.10;3.75;;;;;;;;;;5087278;28;20103;-77
2021/09/24 11:36:00;;;;;;;4.72;4.13;;;;;;;;;;5079876;28;20027;-76
2021/09/24 11:38:28;;;;;;;5.05;4.32;;;;;;;;;;5089812;28;20107;-77
2021/09/24 11:40:55;;;;;;;6.90;4.60;;;;;;;;;;5087990;28;20027;-77
2021/09/24 13:02:23;;;;;;;7.23;4.00;;;;;;;;;;6149459;22;1631728;-82
2021/09/24 13:04:49;;;;;;;7.05;4.13;;;;;;;;;;6193550;23;20001;-82
2021/09/24 13:07:19;;;;;;;6.68;4.20;;;;;;;;;;6193950;23;20025;-80
2021/09/24 13:09:46;;;;;;;5.80;4.38;;;;;;;;;;6193453;23;20456;-80
2021/09/24 13:12:12;;;;;;;7.00;4.07;;;;;;;;;;6192632;23;19997;-81
2021/09/24 13:14:40;;;;;;;9.13;4.35;;;;;;;;;;6190681;23;20063;-79
2021/09/24 13:17:06;;;;;;;4.60;4.05;;;;;;;;;;6193789;23;20051;-80
2021/09/24 13:19:35;;;;;;;8.40;4.07;;;;;;;;;;6193331;23;20005;-81
2021/09/24 13:22:01;;;;;;;4.70;3.88;;;;;;;;;;6193590;23;20007;-84
2021/09/24 13:24:27;;;;;;;9.85;4.40;;;;;;;;;;6194228;23;20071;-84
2021/09/24 13:26:56;;;;;;;8.48;4.30;;;;;;;;;;6193718;23;20008;-85
2021/09/24 13:29:22;;;;;;;6.65;4.30;;;;;;;;;;6191648;23;20008;-84
2021/09/24 13:31:48;;;;;;;5.18;4.10;;;;;;;;;;6193782;23;20079;-84
2021/09/24 13:34:14;;;;;;;8.25;4.53;;;;;;;;;;6194114;23;20382;-85
2021/09/24 13:36:41;;;;;;;6.35;3.80;;;;;;;;;;6189851;23;20487;-85
2021/09/24 13:39:07;;;;;;;5.75;3.80;;;;;;;;;;6190316;23;20508;-86
2021/09/24 13:41:33;;;;;;;7.63;4.47;;;;;;;;;;6190037;23;20005;-86
2021/09/24 13:43:59;;;;;;;6.90;4.28;;;;;;;;;;6188700;23;20341;-85
2021/09/24 13:46:25;;;;;;;5.15;3.67;;;;;;;;;;6190226;23;20001;-83
2021/09/24 13:48:52;;;;;;;6.22;4.00;;;;;;;;;;6189583;23;20009;-83
2021/09/24 13:51:18;;;;;;;6.05;4.05;;;;;;;;;;6188195;23;20001;-80
2021/09/24 13:53:44;;;;;;;5.07;4.40;;;;;;;;;;6190273;23;20492;-82
2021/09/24 13:56:12;;;;;;;5.15;3.97;;;;;;;;;;6187603;23;20090;-81
2021/09/24 13:58:39;;;;;;;11.70;4.55;;;;;;;;;;6189690;23;20016;-84
2021/09/24 14:01:05;;;;;;;6.50;3.95;;;;;;;;;;6180661;23;20019;-84
2021/09/24 14:03:31;;;;;;;17.25;5.22;;;;;;;;;;6183453;23;20076;-85
2021/09/24 14:05:57;;;;;;;7.05;4.45;;;;;;;;;;6183397;23;20414;-84
2021/09/24 14:08:24;;;;;;;7.53;4.25;;;;;;;;;;6179893;23;20016;-86
2021/09/24 14:10:50;;;;;;;6.00;4.53;;;;;;;;;;6181935;23;20004;-83
2021/09/24 14:13:16;;;;;;;5.78;4.28;;;;;;;;;;6183350;23;20012;-82
2021/09/24 14:15:43;;;;;;;7.47;4.10;;;;;;;;;;6182879;23;20021;-86
2021/09/24 14:18:11;;;;;;;4.93;4.03;;;;;;;;;;6181711;23;20024;-81
2021/09/24 14:20:38;;;;;;;5.22;4.20;;;;;;;;;;6182943;23;20004;-81
2021/09/24 14:23:04;;;;;;;7.03;4.10;;;;;;;;;;6183426;23;20005;-79
2021/09/24 14:25:30;;;;;;;6.90;3.85;;;;;;;;;;6184295;23;20007;-75
2021/09/24 14:33:35;;;;;;;8.55;4.35;;;;;;;;;;6183270;23;20575;-74
2021/09/24 14:36:02;;;;;;;6.05;4.05;;;;;;;;;;6186838;23;20005;-73
2021/09/24 14:38:28;;;;;;;7.45;4.28;;;;;;;;;;6186439;23;20437;-72
2021/09/24 14:40:54;;;;;;;6.55;4.90;;;;;;;;;;6186450;23;20029;-73
2021/09/24 14:43:20;;;;;;;6.28;4.60;;;;;;;;;;6185063;23;20087;-73
2021/09/24 14:45:47;;;;;;;4.93;4.43;;;;;;;;;;6186546;23;20413;-72
2021/09/24 14:48:13;;;;;;;6.70;3.88;;;;;;;;;;6186518;23;20012;-72
2021/09/24 14:50:39;;;;;;;5.40;4.43;;;;;;;;;;6186466;23;20052;-73
2021/09/24 14:53:05;;;;;;;7.50;4.75;;;;;;;;;;6184716;23;20071;-73
2021/09/24 14:55:31;;;;;;;8.18;4.80;;;;;;;;;;6186719;23;20001;-74
2021/09/24 14:57:58;;;;;;;5.38;4.47;;;;;;;;;;6186684;23;20020;-72
2021/09/24 15:00:24;;;;;;;9.10;4.60;;;;;;;;;;6186304;23;20073;-72
2021/09/24 15:02:50;;;;;;;13.75;4.72;;;;;;;;;;6185543;23;20430;-73
2021/09/24 15:05:16;;;;;;;5.95;4.55;;;;;;;;;;6185644;23;20059;-72
2021/09/24 15:07:43;;;;;;;13.40;4.50;;;;;;;;;;6186719;23;20001;-73
2021/09/24 15:10:09;;;;;;;6.85;4.68;;;;;;;;;;6186197;23;20083;-72
2021/09/24 15:12:36;;;;;;;7.30;4.80;;;;;;;;;;6183993;23;20012;-72
2021/09/24 15:15:02;;;;;;;8.52;4.50;;;;;;;;;;6186207;23;20001;-72
2021/09/24 15:17:28;;;;;;;7.70;4.28;;;;;;;;;;6186197;23;20048;-73
2021/09/24 15:19:55;;;;;;;6.57;4.28;;;;;;;;;;6186093;23;20007;-73
2021/09/24 15:22:21;;;;;;;7.53;4.50;;;;;;;;;;6184311;23;19997;-73
2021/09/24 15:24:50;;;;;;;6.70;4.45;;;;;;;;;;6186141;23;20035;-73
2021/09/24 15:27:17;;;;;;;6.32;4.15;;;;;;;;;;6186157;23;20001;-73
2021/09/24 15:29:43;;;;;;;6.97;4.20;;;;;;;;;;6186257;23;20012;-73
2021/09/24 15:32:09;;;;;;;5.95;4.45;;;;;;;;;;6214256;23;20084;-73
2021/09/24 15:34:36;;;;;;;6.95;4.50;;;;;;;;;;6244654;23;20050;-73
2021/09/24 15:37:02;;;;;;;9.15;4.63;;;;;;;;;;6246249;23;20053;-73
2021/09/24 15:39:28;;;;;;;11.35;4.43;;;;;;;;;;6246373;23;20103;-73
2021/09/24 15:41:54;;;;;;;6.68;4.40;;;;;;;;;;6246322;23;20000;-72
2021/09/24 15:44:21;;;;;;;6.43;4.43;;;;;;;;;;6244887;23;20004;-75
2021/09/24 15:46:47;;;;;;;9.20;4.50;;;;;;;;;;6247266;23;20054;-73
2021/09/24 15:49:14;;;;;;;7.82;4.65;;;;;;;;;;6246340;23;20052;-73
2021/09/24 15:51:43;;;;;;;6.70;4.50;;;;;;;;;;6244347;23;20032;-73
2021/09/24 15:54:09;;;;;;;7.53;4.18;;;;;;;;;;6246737;23;20024;-73
2021/09/24 15:56:35;;;;;;;5.65;4.35;;;;;;;;;;6246279;23;20083;-73
2021/09/24 15:59:01;;;;;;;6.53;4.65;;;;;;;;;;6246182;23;20100;-73
2021/09/24 16:01:29;;;;;;;5.75;4.72;;;;;;;;;;6246074;23;20023;-73
2021/09/24 16:03:57;;;;;;;8.98;5.10;;;;;;;;;;6244541;23;20000;-73
2021/09/24 16:06:23;;;;;;;8.57;4.50;;;;;;;;;;6246584;23;20004;-73
2021/09/24 16:08:49;;;;;;;7.57;4.70;;;;;;;;;;6246254;23;20008;-73
2021/09/24 16:11:16;;;;;;;6.55;4.30;;;;;;;;;;6246164;23;20000;-72
2021/09/24 16:13:42;;;;;;;7.22;4.85;;;;;;;;;;6218382;23;20005;-73
2021/09/24 16:16:08;;;;;;;9.43;5.35;;;;;;;;;;6245506;22;20134;-72
2021/09/24 16:18:34;;;;;;;5.93;4.50;;;;;;;;;;6246420;23;20016;-72
2021/09/24 16:21:00;;;;;;;7.07;4.65;;;;;;;;;;6245909;23;20058;-73
2021/09/24 16:23:27;;;;;;;5.60;3.95;;;;;;;;;;6246168;23;20305;-73
2021/09/24 16:25:53;;;;;;;11.57;4.88;;;;;;;;;;6244980;23;20030;-73
2021/09/24 16:28:20;;;;;;;26.10;15.55;;;;;;;;;;6245580;23;20004;-72
2021/09/24 16:30:46;;;;;;;16.35;8.88;;;;;;;;;;6246089;23;20443;-72
2021/09/24 16:33:13;;;;;;;7.43;5.70;;;;;;;;;;6245803;23;20313;-74
2021/09/24 16:35:39;;;;;;;7.38;4.55;;;;;;;;;;6246039;23;20079;-72
2021/09/24 16:38:06;;;;;;;5.53;4.68;;;;;;;;;;6244046;23;20503;-72
2021/09/24 16:40:34;;;;;;;6.45;4.50;;;;;;;;;;6245839;23;20023;-73
2021/09/24 16:43:00;;;;;;;9.20;5.25;;;;;;;;;;6245872;23;20031;-74
2021/09/24 16:45:27;;;;;;;10.45;5.78;;;;;;;;;;6246346;23;20031;-73
2021/09/24 16:47:53;;;;;;;12.38;8.60;;;;;;;;;;6243257;23;20363;-73
2021/09/24 16:50:19;;;;;;;10.05;5.75;;;;;;;;;;6246051;23;20008;-73
2021/09/24 16:52:45;;;;;;;7.30;4.85;;;;;;;;;;6245932;23;19996;-73
2021/09/24 16:55:13;;;;;;;6.93;4.65;;;;;;;;;;6246095;23;20004;-73
2021/09/24 16:57:39;;;;;;;7.35;4.43;;;;;;;;;;6246017;23;20008;-73
2021/09/24 17:00:07;;;;;;;9.43;4.38;;;;;;;;;;6246074;23;20054;-74
2021/09/24 17:02:33;;;;;;;6.93;4.10;;;;;;;;;;6244010;23;20019;-73
2021/09/24 17:04:59;;;;;;;4.60;3.90;;;;;;;;;;6245813;23;20044;-73
2021/09/24 17:07:25;;;;;;;4.88;3.92;;;;;;;;;;6246044;23;20000;-73
2021/09/24 17:09:51;;;;;;;4.88;4.28;;;;;;;;;;6245545;22;20035;-73
2021/09/24 17:12:19;;;;;;;6.72;4.22;;;;;;;;;;6242031;23;20423;-73
2021/09/24 17:14:45;;;;;;;8.52;4.45;;;;;;;;;;6243490;23;20012;-73
2021/09/24 17:17:11;;;;;;;7.10;4.18;;;;;;;;;;6243059;23;20447;-74
2021/09/24 17:19:37;;;;;;;6.05;4.70;;;;;;;;;;6241434;23;20015;-73
2021/09/24 17:22:03;;;;;;;8.77;4.90;;;;;;;;;;6242783;23;20079;-73
2021/09/24 17:24:30;;;;;;;6.68;4.22;;;;;;;;;;6243403;23;20008;-73
2021/09/24 17:26:56;;;;;;;5.70;4.65;;;;;;;;;;6244203;23;20004;-73
2021/09/24 17:29:22;;;;;;;8.23;4.78;;;;;;;;;;6245684;23;20001;-74
2021/09/24 17:31:48;;;;;;;7.40;4.63;;;;;;;;;;6216861;23;20314;-74
2021/09/24 17:34:15;;;;;;;9.38;4.70;;;;;;;;;;6245910;23;20302;-73
2021/09/24 17:36:41;;;;;;;5.07;4.55;;;;;;;;;;6247499;23;20004;-73
2021/09/24 17:39:08;;;;;;;6.35;4.30;;;;;;;;;;6220762;23;20016;-73
2021/09/24 17:41:34;;;;;;;9.48;5.15;;;;;;;;;;6234197;23;20028;-72
2021/09/24 17:44:00;;;;;;;8.32;5.00;;;;;;;;;;6232346;23;20015;-73
2021/09/24 17:46:26;;;;;;;9.88;4.88;;;;;;;;;;6232479;23;20000;-73
2021/09/24 17:48:52;;;;;;;7.20;5.20;;;;;;;;;;6236680;23;20376;-74
2021/09/24 17:51:19;;;;;;;9.32;4.93;;;;;;;;;;6235062;23;20389;-73
2021/09/24 17:53:45;;;;;;;7.93;5.03;;;;;;;;;;6234565;23;20075;-74
2021/09/24 17:56:12;;;;;;;7.32;4.93;;;;;;;;;;6228188;23;20005;-73
2021/09/24 17:58:42;;;;;;;9.65;5.65;;;;;;;;;;6235097;23;20351;-75
2021/09/24 18:01:10;;;;;;;6.43;4.60;;;;;;;;;;6203020;23;20028;-72
2021/09/24 18:03:38;;;;;;;9.52;5.63;;;;;;;;;;6233175;22;19996;-75
2021/09/24 18:06:05;;;;;;;20.52;6.25;;;;;;;;;;6233346;23;20004;-71
2021/09/24 18:08:31;;;;;;;9.85;6.43;;;;;;;;;;6231956;23;19996;-74
2021/09/24 18:10:57;;;;;;;12.88;7.47;;;;;;;;;;6233604;23;20062;-74
2021/09/24 18:13:23;;;;;;;15.43;7.53;;;;;;;;;;6232434;23;20002;-73
2021/09/24 18:15:50;;;;;;;13.40;6.20;;;;;;;;;;6233514;23;20472;-71
2021/09/24 18:18:16;;;;;;;6.95;5.68;;;;;;;;;;6233436;23;20012;-72
2021/09/24 18:20:42;;;;;;;7.13;5.72;;;;;;;;;;6232116;23;20078;-74
2021/09/24 18:23:08;;;;;;;10.98;6.35;;;;;;;;;;6233500;23;20416;-72
2021/09/24 18:25:35;;;;;;;7.38;5.93;;;;;;;;;;6233671;23;20058;-73
2021/09/24 18:28:01;;;;;;;8.88;6.00;;;;;;;;;;6233322;23;20004;-75
2021/09/24 18:30:27;;;;;;;9.93;5.75;;;;;;;;;;6231815;23;19996;-72
2021/09/24 18:32:53;;;;;;;9.93;6.13;;;;;;;;;;6233471;23;20038;-73
2021/09/24 18:35:20;;;;;;;8.32;5.30;;;;;;;;;;6233311;23;20071;-73
2021/09/24 18:37:47;;;;;;;8.18;5.78;;;;;;;;;;6232843;23;20000;-71
2021/09/24 18:40:13;;;;;;;8.15;5.70;;;;;;;;;;6231110;23;20087;-71
2021/09/24 18:42:41;;;;;;;7.90;6.43;;;;;;;;;;6233488;23;20422;-74
2021/09/24 18:45:08;;;;;;;7.57;5.78;;;;;;;;;;6232817;23;20087;-73
2021/09/24 18:47:34;;;;;;;6.80;5.50;;;;;;;;;;6232829;23;20622;-75
2021/09/24 18:50:00;;;;;;;8.13;5.47;;;;;;;;;;6231222;23;20073;-73
2021/09/24 18:52:27;;;;;;;8.75;5.68;;;;;;;;;;6232601;23;20106;-71
2021/09/24 18:54:53;;;;;;;8.98;6.07;;;;;;;;;;6233064;23;20351;-71
2021/09/24 18:57:19;;;;;;;8.18;5.85;;;;;;;;;;6233120;23;20078;-75
2021/09/24 18:59:45;;;;;;;7.75;5.93;;;;;;;;;;6233343;23;20011;-73
2021/09/24 19:02:11;;;;;;;11.13;5.50;;;;;;;;;;6230951;23;20075;-73